Latest Coastal Weather Observations for Green Cape

IDN60701

Issued at 2:51 am EST Sunday 31 July 2016 (issued every 10 minutes, with the page automatically refreshed every 10 minutes)

About coastal observations | Map of coastal stations | Coastal observations for NSW | Marine services | Other Formats
Station Details ID: 069137 Name: GREEN CAPE AWS Lat: -37.26 Lon: 150.05 Height: 19.4 m
Data from the previous 72 hours. | See also: Recent months at Green Cape
Date/Time
EST
Temp
°C
Wind Pressure Rain since
9am
mm
Weather Cloud Vis
km
Sea
Height
m
Swell
Dir  Spd
kts
Gust
kts
hPa Trend Height
m
Period
s
Dir
31/02:30am 11.3 NNW 7 10 1013.1 - 0.0 - - - - - - -
31/02:00am 10.6 N 6 8 1013.6 - 0.0 - - - - - - -
31/01:30am 9.8 W 4 7 1014.4 - 0.0 - - - - - - -
31/01:00am 10.3 W 5 7 1015.0 - 0.0 - - - - - - -
31/12:30am 11.1 NW 5 7 1015.1 - 0.0 - - - - - - -
31/12:00am 11.5 NNW 3 5 1015.1 - 0.0 - - - - - - -
 
Date/Time
EST
Temp
°C
Wind Pressure Rain since
9am
mm
Weather Cloud Vis
km
Sea
Height
m
Swell
Dir  Spd
kts
Gust
kts
hPa Trend Height
m
Period
s
Dir
30/11:30pm 12.0 N 10 13 1015.2 - 0.0 - - - - - - -
30/11:00pm 12.0 N 10 13 1015.2 - 0.0 - - - - - - -
30/10:30pm 11.9 N 12 14 1015.7 - 0.0 - - - - - - -
30/10:00pm 11.8 N 9 10 1016.5 - 0.0 - - - - - - -
30/09:30pm 12.1 N 8 10 1016.7 - 0.0 - - - - - - -
30/09:00pm 12.3 N 9 11 1017.0 - 0.0 - - - - - - -
30/08:30pm 13.4 NNE 15 17 1017.2 - 0.0 - - - - - - -
30/08:00pm 13.2 NNE 14 16 1017.3 - 0.0 - - - - - - -
30/07:30pm 13.3 NNE 14 17 1017.8 - 0.0 - - - - - - -
30/07:00pm 13.2 NNE 15 17 1018.0 - 0.0 - - - - - - -
30/06:30pm 13.0 NNE 15 17 1018.0 - 0.0 - - - - - - -
30/06:00pm 12.9 NNE 13 15 1017.9 - 0.0 - - - - - - -
30/05:30pm 12.8 NNE 12 15 1018.0 - 0.0 - - - - - - -
30/05:00pm 13.1 NNE 10 12 1018.3 - 0.0 - - - - - - -
30/04:30pm 13.6 NE 12 13 1017.6 - 0.0 - - - - - - -
30/04:00pm 14.1 NE 9 10 1018.2 - 0.0 - - - - - - -
30/03:30pm 14.7 NE 8 9 1018.7 - 0.0 - - - - - - -
30/03:00pm 15.3 NE 8 10 1018.8 - 0.0 - - - - - - -
30/02:30pm 15.9 ENE 5 6 1019.2 - 0.0 - - - - - - -
30/02:00pm 15.7 NE 8 9 1019.2 - 0.0 - - - - - - -
30/01:30pm 16.4 ENE 5 6 1019.6 - 0.0 - - - - - - -
30/01:00pm 16.0 NE 5 5 1020.1 - 0.0 - - - - - - -
30/12:30pm 16.3 E 3 5 1020.5 - 0.0 - - - - - - -
30/12:00pm 16.8 SE 3 4 1021.1 - 0.0 - - - - - - -
30/11:30am 15.0 CALM 0 2 1021.6 - 0.0 - - - - - - -
30/11:00am 14.1 W 2 3 1022.0 - 0.0 - - - - - - -
30/10:30am 13.8 W 3 5 1022.2 - 0.0 - - - - - - -
30/10:00am 13.0 W 5 6 1022.3 - 0.0 - - - - - - -
30/09:30am 12.7 W 6 8 1022.4 - 0.0 - - - - - - -
30/09:00am 12.1 W 7 11 1022.4 - 0.0 - - - - - - -
30/08:30am 11.5 WNW 6 8 1022.2 - 0.0 - - - - - - -
30/08:00am 10.8 W 6 9 1021.9 - 0.0 - - - - - - -
30/07:30am 10.6 W 10 11 1021.7 - 0.0 - - - - - - -
30/07:00am 10.6 W 9 12 1021.4 - 0.0 - - - - - - -
30/06:30am 11.1 W 13 18 1021.0 - 0.0 - - - - - - -
30/06:00am 11.4 W 15 21 1021.0 - 0.0 - - - - - - -
30/05:30am 11.7 WSW 16 21 1020.6 - 0.0 - - - - - - -
30/05:00am 11.4 W 9 12 1020.5 - 0.0 - - - - - - -
30/04:30am 11.1 W 5 7 1020.3 - 0.0 - - - - - - -
30/04:00am 11.7 W 8 11 1020.3 - 0.0 - - - - - - -
30/03:30am 11.7 W 8 9 1020.2 - 0.0 - - - - - - -
30/03:00am 12.4 WSW 13 16 1020.1 - 0.0 - - - - - - -
30/02:30am 12.4 SW 16 18 1020.2 - 0.0 - - - - - - -
30/02:00am 12.5 WSW 13 17 1020.4 - 0.0 - - - - - - -
30/01:30am 12.3 WSW 12 17 1020.1 - 0.0 - - - - - - -
30/01:28am 12.1 WSW 11 17 1020.1 - 0.0 - - - - - - -
30/01:00am 11.6 W 4 6 1020.3 - 0.0 - - - - - - -
30/12:30am 11.1 WNW 3 4 1020.2 - 0.0 - - - - - - -
30/12:00am 11.7 W 6 9 1020.1 - 0.0 - - - - - - -
 
Date/Time
EST
Temp
°C
Wind Pressure Rain since
9am
mm
Weather Cloud Vis
km
Sea
Height
m
Swell
Dir  Spd
kts
Gust
kts
hPa Trend Height
m
Period
s
Dir
29/11:30pm 12.5 WSW 12 16 1020.0 - 0.0 - - - - - - -
29/11:00pm 12.7 WSW 14 16 1019.8 - 0.0 - - - - - - -
29/10:30pm 13.0 WSW 16 19 1019.7 - 0.0 - - - - - - -
29/10:00pm 12.4 W 8 10 1019.9 - 0.0 - - - - - - -
29/09:30pm 12.2 W 8 10 1019.6 - 0.0 - - - - - - -
29/09:00pm 12.7 SW 4 6 1019.1 - 0.0 - - - - - - -
29/08:30pm 12.6 W 5 7 1018.8 - 0.0 - - - - - - -
29/08:00pm 12.5 W 6 7 1018.4 - 0.0 - - - - - - -
29/07:30pm 12.9 W 5 7 1018.0 - 0.0 - - - - - - -
29/07:00pm 13.7 W 3 5 1017.9 - 0.0 - - - - - - -
29/06:30pm 14.2 NNW 5 7 1017.6 - 0.0 - - - - - - -
29/06:00pm 13.6 NNW 6 8 1017.3 - 0.0 - - - - - - -
29/05:30pm 13.6 N 6 8 1016.9 - 0.0 - - - - - - -
29/05:00pm 13.8 N 9 9 1016.5 - 0.0 - - - - - - -
29/04:30pm 14.4 N 7 9 1016.4 - 0.0 - - - - - - -
29/04:00pm 14.5 N 3 4 1016.4 - 0.0 - - - - - - -
29/03:30pm 15.4 NNE 3 3 1016.4 - 0.0 - - - - - - -
29/03:00pm 15.8 NE 5 6 1016.2 - 0.0 - - - - - - -
29/02:30pm 18.1 WNW 1 3 1016.4 - 0.0 - - - - - - -
29/02:00pm 17.2 W 4 7 1016.3 - 0.0 - - - - - - -
29/01:30pm 17.8 WNW 6 9 1016.6 - 0.0 - - - - - - -
29/01:00pm 17.2 WNW 7 9 1016.8 - 0.0 - - - - - - -
29/12:30pm 16.1 WNW 7 10 1017.4 - 0.0 - - - - - - -
29/12:00pm 15.2 W 8 10 1018.0 - 0.0 - - - - - - -
29/11:30am 15.2 WNW 6 9 1018.4 - 0.0 - - - - - - -
29/11:00am 14.0 WNW 8 9 1018.8 - 0.0 - - - - - - -
29/10:30am 13.9 WNW 4 6 1019.3 - 0.0 - - - - - - -
29/10:00am 14.8 NW 6 11 1019.6 - 0.0 - - - - - - -
29/09:30am 13.5 NW 5 10 1019.9 - 0.0 - - - - - - -
29/09:00am 12.2 NNW 3 5 1020.0 - 0.0 - - - - - - -
29/08:30am 9.4 WNW 5 7 1020.0 - 0.0 - - - - - - -
29/08:00am 9.4 NW 3 7 1019.7 - 0.0 - - - - - - -
29/07:30am 10.2 NW 3 5 1019.6 - 0.0 - - - - - - -
29/07:00am 10.4 WNW 12 15 1019.5 - 0.0 - - - - - - -
29/06:30am 10.1 WNW 10 14 1019.3 - 0.0 - - - - - - -
29/06:00am 10.2 W 12 14 1019.2 - 0.0 - - - - - - -
29/05:30am 10.4 WNW 5 9 1019.2 - 0.0 - - - - - - -
29/05:00am 10.1 WNW 3 7 1019.4 - 0.0 - - - - - - -
29/04:30am 9.8 WNW 4 9 1019.4 - 0.0 - - - - - - -
29/04:00am 10.1 W 7 11 1019.5 - 0.0 - - - - - - -
29/03:30am 9.9 SW 2 5 1019.4 - 0.0 - - - - - - -
29/03:00am 9.4 NW 3 6 1019.6 - 0.0 - - - - - - -
29/02:30am 9.3 NW 6 15 1020.2 - 0.0 - - - - - - -
29/02:00am 9.5 NW 6 9 1019.9 - 0.0 - - - - - - -
29/01:30am 8.9 WNW 5 7 1020.0 - 0.0 - - - - - - -
29/01:00am 9.1 W 7 10 1020.4 - 0.0 - - - - - - -
29/12:30am 9.8 NW 2 3 1020.7 - 0.0 - - - - - - -
29/12:00am 10.0 WNW 3 5 1020.7 - 0.0 - - - - - - -
 
Date/Time
EST
Temp
°C
Wind Pressure Rain since
9am
mm
Weather Cloud Vis
km
Sea
Height
m
Swell
Dir  Spd
kts
Gust
kts
hPa Trend Height
m
Period
s
Dir
28/11:30pm 10.1 WNW 5 8 1020.9 - 0.0 - - - - - - -
28/11:00pm 10.7 WNW 3 5 1021.0 - 0.0 - - - - - - -
28/10:30pm 10.2 NW 3 4 1020.9 - 0.0 - - - - - - -
28/10:00pm 11.4 WSW 5 7 1020.8 - 0.0 - - - - - - -
28/09:30pm 11.5 W 2 3 1020.9 - 0.0 - - - - - - -
28/09:00pm 12.1 SSW 5 6 1020.8 - 0.0 - - - - - - -
28/08:30pm 12.4 SW 7 9 1021.0 - 0.0 - - - - - - -
28/08:00pm 12.9 SW 10 12 1021.0 - 0.0 - - - - - - -
28/07:30pm 12.9 W 9 13 1020.6 - 0.0 - - - - - - -
28/07:00pm 12.7 W 8 13 1020.2 - 0.0 - - - - - - -
28/06:30pm 12.6 WNW 2 4 1020.0 - 0.0 - - - - - - -
28/06:00pm 13.2 S 2 4 1019.6 - 0.0 - - - - - - -
28/05:30pm 13.7 CALM 0 0 1019.3 - 0.0 - - - - - - -
28/05:00pm 14.3 SE 4 7 1019.0 - 0.0 - - - - - - -
28/04:30pm 15.8 NNE 2 3 1018.8 - 0.0 - - - - - - -
28/04:00pm 16.2 ENE 3 5 1018.6 - 0.0 - - - - - - -
28/03:30pm 16.4 S 1 2 1018.4 - 0.0 - - - - - - -
28/03:00pm 17.4 SSW 4 5 1018.5 - 0.0 - - - - - - -
28/02:30pm 16.7 SW 6 8 1018.4 - 0.0 - - - - - - -
28/02:00pm 16.7 SW 9 13 1018.5 - 0.0 - - - - - - -
28/01:30pm 16.7 W 9 12 1018.6 - 0.0 - - - - - - -
28/01:00pm 16.2 W 15 19 1018.9 - 0.0 - - - - - - -
28/12:30pm 15.8 WSW 15 18 1019.3 - 0.0 - - - - - - -
28/12:00pm 15.2 W 12 15 1019.8 - 0.0 - - - - - - -
28/11:30am 14.9 W 14 19 1020.2 - 0.0 - - - - - - -
28/11:00am 14.3 W 14 16 1020.7 - 0.0 - - - - - - -
28/10:30am 13.7 WNW 15 17 1020.7 - 0.0 - - - - - - -
28/10:00am 12.6 W 15 17 1020.6 - 0.0 - - - - - - -
28/09:30am 11.5 W 15 17 1020.5 - 0.0 - - - - - - -
28/09:00am 10.9 WNW 13 15 1020.5 - 0.0 - - - - - - -
28/08:30am 10.1 WNW 12 14 1020.5 - 0.0 - - - - - - -
28/08:00am 9.7 W 10 12 1020.4 - 0.0 - - - - - - -
28/07:30am 9.5 WNW 10 12 1020.2 - 0.0 - - - - - - -
28/07:00am 9.5 W 11 12 1020.1 - 0.0 - - - - - - -
28/06:30am 10.2 W 10 11 1019.8 - 0.0 - - - - - - -
28/06:00am 9.9 W 9 11 1019.5 - 0.0 - - - - - - -
28/05:30am 10.1 W 6 10 1019.2 - 0.0 - - - - - - -
28/05:00am 9.5 NW 7 10 1018.8 - 0.0 - - - - - - -
28/04:30am 10.4 WNW 9 14 1018.7 - 0.0 - - - - - - -
28/04:00am 10.7 W 5 9 1018.9 - 0.0 - - - - - - -
28/03:30am 10.6 W 9 13 1018.6 - 0.0 - - - - - - -
28/03:00am 10.7 W 12 17 1018.4 - 0.0 - - - - - - -

Other Formats:

Comma delimited format used in spreadsheet applications
http://www.bom.gov.au/fwo/IDN60701/IDN60701.94934.axf

JavaScript Object Notation format (JSON) in row-major order
http://www.bom.gov.au/fwo/IDN60701/IDN60701.94934.json